Volney, Iowa
Current Conditions -  °F | °C
As of 11:15 PM on Friday 24 Oct 2014 (Local Time) from KPDC Reporting Station
Haze Haze  
Wind Chill: 59°   Ceiling: 700
Heat Index: 59°   Visibility: 4mi
Dew Point: 57°   Wind: 0mph
Humidity: 91%   Direction: NA
Pressure: 29.92"   Gusts: NA
Location:  43.0888°N, 91.4288°W
Report Text: KPDC 250415Z AUTO 00000KT 4SM BR OVC007 15/14 A2992 RMK AO2 T01520138
Loading
Personal Weather Stations






























Interactive Weather Map
Tropical Storm Tracking
New forecast layout! Learn more

10-Day Weather Forecast

Advertisements
Track Severe Weather on mobile